createdAt,value
2018-03-20T00:02:14.102Z,20.33
2018-03-20T00:04:42.365Z,12.33
2018-03-20T00:07:10.741Z,21.73
2018-03-20T00:09:39.023Z,17.33
2018-03-20T00:12:07.398Z,18.97
2018-03-20T00:14:35.687Z,17.13
2018-03-20T00:17:04.158Z,15.03
2018-03-20T00:19:32.447Z,13.60
2018-03-20T00:22:00.705Z,19.50
2018-03-20T00:24:28.992Z,14.90
2018-03-20T00:26:57.953Z,15.80
2018-03-20T00:29:26.254Z,18.43
2018-03-20T00:31:54.536Z,14.30
2018-03-20T00:34:22.801Z,18.07
2018-03-20T00:36:51.084Z,16.77
2018-03-20T00:39:19.348Z,15.30
2018-03-20T00:41:47.642Z,10.67
2018-03-20T00:44:15.901Z,16.43
2018-03-20T00:46:44.196Z,14.67
2018-03-20T00:49:12.457Z,17.57
2018-03-20T00:51:40.765Z,13.50
2018-03-20T00:54:09.074Z,19.10
2018-03-20T00:56:38.134Z,14.90
2018-03-20T00:59:06.392Z,12.47
2018-03-20T01:01:34.687Z,12.43
2018-03-20T01:04:02.952Z,15.80
2018-03-20T01:06:31.211Z,11.80
2018-03-20T01:08:59.496Z,18.43
2018-03-20T01:11:27.765Z,12.30
2018-03-20T01:13:56.070Z,17.10
2018-03-20T01:16:24.342Z,13.37
2018-03-20T01:18:52.603Z,14.70
2018-03-20T01:21:20.895Z,12.87
2018-03-20T01:23:49.169Z,18.13
2018-03-20T01:26:17.436Z,15.80
2018-03-20T01:28:45.841Z,15.73
2018-03-20T01:31:14.107Z,11.53
2018-03-20T01:33:42.485Z,12.87
2018-03-20T01:36:10.748Z,12.57
2018-03-20T01:38:39.018Z,9.57
2018-03-20T01:41:07.284Z,10.87
2018-03-20T01:43:35.607Z,12.60
2018-03-20T01:46:04.663Z,14.83
2018-03-20T01:48:32.926Z,12.13
2018-03-20T01:51:01.225Z,14.87
2018-03-20T01:53:29.496Z,9.20
2018-03-20T01:55:57.783Z,11.80
2018-03-20T01:58:26.061Z,12.13
2018-03-20T02:00:54.440Z,10.40
2018-03-20T02:03:22.812Z,12.97
2018-03-20T02:05:51.093Z,12.63
2018-03-20T02:08:19.357Z,11.70
2018-03-20T02:10:47.651Z,11.90
2018-03-20T02:13:16.030Z,12.73
2018-03-20T02:15:44.275Z,14.10
2018-03-20T02:18:12.581Z,11.50
2018-03-20T02:20:40.873Z,10.93
2018-03-20T02:23:09.152Z,9.37
2018-03-20T02:25:37.412Z,11.00
2018-03-20T02:28:05.691Z,13.53
2018-03-20T02:30:33.970Z,9.30
2018-03-20T02:33:02.263Z,9.00
2018-03-20T02:35:31.241Z,11.80
2018-03-20T02:37:59.529Z,12.50
2018-03-20T02:40:28.584Z,9.70
2018-03-20T02:42:56.865Z,9.00
2018-03-20T02:45:25.121Z,12.57
2018-03-20T02:47:53.404Z,8.13
2018-03-20T02:50:21.660Z,9.40
2018-03-20T02:52:50.709Z,11.10
2018-03-20T02:55:18.977Z,12.30
2018-03-20T02:57:47.260Z,9.43
2018-03-20T03:00:15.539Z,13.40
2018-03-20T03:02:43.800Z,8.33
2018-03-20T03:05:12.075Z,12.73
2018-03-20T03:07:40.366Z,12.70
2018-03-20T03:10:08.648Z,11.93
2018-03-20T03:12:37.033Z,10.20
2018-03-20T03:15:05.304Z,10.27
2018-03-20T03:17:33.587Z,11.30
2018-03-20T03:20:01.965Z,8.67
2018-03-20T03:22:30.229Z,12.30
2018-03-20T03:24:58.509Z,10.57
2018-03-20T03:27:26.775Z,13.47
2018-03-20T03:29:55.064Z,12.07
2018-03-20T03:32:23.334Z,10.67
2018-03-20T03:34:51.612Z,12.90
2018-03-20T03:37:19.876Z,11.67
2018-03-20T03:39:48.185Z,13.10
2018-03-20T03:42:16.439Z,9.90
2018-03-20T03:44:44.728Z,13.10
2018-03-20T03:47:12.996Z,11.60
2018-03-20T03:49:41.280Z,12.00
2018-03-20T03:52:09.547Z,15.63
2018-03-20T03:54:37.815Z,15.17
2018-03-20T03:57:06.091Z,9.33
2018-03-20T03:59:34.347Z,10.40
2018-03-20T04:02:02.636Z,12.90
2018-03-20T04:04:30.897Z,15.67
2018-03-20T04:06:59.180Z,7.90
2018-03-20T04:09:27.437Z,9.17
2018-03-20T04:11:56.489Z,9.77
2018-03-20T04:14:24.764Z,8.80
2018-03-20T04:16:53.035Z,7.37
2018-03-20T04:19:21.296Z,8.47
2018-03-20T04:21:49.628Z,12.13
2018-03-20T04:24:17.900Z,8.53
2018-03-20T04:26:46.490Z,13.07
2018-03-20T04:29:14.762Z,13.70
2018-03-20T04:31:43.030Z,8.23
2018-03-20T04:34:11.321Z,13.00
2018-03-20T04:36:39.594Z,10.37
2018-03-20T04:39:07.887Z,9.60
2018-03-20T04:41:36.236Z,10.00
2018-03-20T04:44:04.611Z,9.87
2018-03-20T04:46:32.875Z,10.53
2018-03-20T04:49:01.153Z,10.23
2018-03-20T04:51:29.417Z,11.40
2018-03-20T04:53:57.728Z,9.77
2018-03-20T04:56:25.996Z,9.50
2018-03-20T04:58:54.281Z,10.00
2018-03-20T05:01:22.568Z,9.10
2018-03-20T05:03:50.817Z,15.20
2018-03-20T05:06:19.919Z,11.10
2018-03-20T05:08:48.995Z,9.53
2018-03-20T05:11:17.298Z,9.97
2018-03-20T05:13:45.561Z,12.10
2018-03-20T05:16:13.845Z,12.27
2018-03-20T05:18:44.701Z,11.73
2018-03-20T05:24:10.696Z,10.60
2018-03-20T05:26:39.745Z,10.97
2018-03-20T05:29:07.998Z,8.90
2018-03-20T05:31:36.340Z,9.50
2018-03-20T05:34:05.370Z,8.27
2018-03-20T05:36:33.628Z,15.63
2018-03-20T05:39:01.917Z,11.60
2018-03-20T05:41:30.201Z,9.50
2018-03-20T05:43:58.509Z,9.90
2018-03-20T05:46:32.427Z,13.07
2018-03-20T05:49:06.471Z,15.90
2018-03-20T05:51:41.204Z,10.03
2018-03-20T05:54:10.255Z,10.97
2018-03-20T05:56:38.516Z,12.90
2018-03-20T05:59:06.799Z,9.63
2018-03-20T06:01:35.088Z,14.70
2018-03-20T06:04:03.379Z,14.10
2018-03-20T06:06:31.639Z,16.90
2018-03-20T06:08:59.916Z,14.90
2018-03-20T06:11:28.182Z,11.73
2018-03-20T06:13:56.540Z,14.03
2018-03-20T06:16:24.804Z,15.20
2018-03-20T06:18:53.102Z,11.53
2018-03-20T06:21:21.360Z,13.33
2018-03-20T06:23:49.629Z,11.10
2018-03-20T06:26:18.678Z,10.83
2018-03-20T06:28:46.936Z,12.73
2018-03-20T06:31:15.221Z,10.03
2018-03-20T06:33:43.502Z,14.00
2018-03-20T06:36:11.989Z,13.00
2018-03-20T06:38:40.241Z,15.50
2018-03-20T06:41:08.526Z,14.77
2018-03-20T06:43:36.805Z,18.83
2018-03-20T06:46:05.101Z,8.60
2018-03-20T06:48:33.381Z,12.27
2018-03-20T06:51:01.656Z,10.10
2018-03-20T06:53:30.030Z,14.07
2018-03-20T06:55:58.302Z,9.17
2018-03-20T06:58:26.580Z,9.77
2018-03-20T07:00:54.848Z,7.20
2018-03-20T07:03:23.122Z,8.30
2018-03-20T07:05:51.379Z,8.73
2018-03-20T07:08:19.663Z,12.07
2018-03-20T07:10:47.935Z,10.27
2018-03-20T07:13:16.208Z,8.63
2018-03-20T07:15:44.468Z,11.30
2018-03-20T07:18:13.544Z,7.20
2018-03-20T07:20:42.570Z,13.40
2018-03-20T07:23:10.840Z,12.83
2018-03-20T07:25:39.880Z,10.07
2018-03-20T07:28:08.162Z,11.00
2018-03-20T07:30:36.444Z,11.37
2018-03-20T07:33:04.820Z,10.87
2018-03-20T07:35:33.092Z,8.80
2018-03-20T07:38:01.354Z,9.03
2018-03-20T07:40:29.654Z,10.10
2018-03-20T07:42:57.908Z,14.03
2018-03-20T07:45:26.308Z,11.20
2018-03-20T07:47:54.580Z,11.30
2018-03-20T07:50:22.852Z,13.83
2018-03-20T07:52:51.107Z,17.60
2018-03-20T07:55:19.432Z,14.43
2018-03-20T07:57:47.689Z,8.73
2018-03-20T08:00:15.941Z,9.27
2018-03-20T08:02:44.216Z,10.87
2018-03-20T08:05:12.491Z,11.17
2018-03-20T08:07:40.801Z,9.97
2018-03-20T08:10:09.065Z,10.93
2018-03-20T08:12:37.345Z,14.57
2018-03-20T08:15:05.628Z,12.87
2018-03-20T08:17:33.904Z,11.67
2018-03-20T08:20:02.194Z,10.70
2018-03-20T08:22:30.468Z,24.67
2018-03-20T08:24:58.744Z,14.37
2018-03-20T08:27:27.045Z,12.80
2018-03-20T08:29:56.099Z,10.60
2018-03-20T08:32:24.372Z,14.20
2018-03-20T08:34:52.648Z,11.70
2018-03-20T08:37:20.920Z,15.67
2018-03-20T08:39:49.189Z,16.00
2018-03-20T08:42:17.458Z,13.77
2018-03-20T08:44:45.740Z,11.77
2018-03-20T08:47:14.000Z,19.47
2018-03-20T08:49:42.294Z,15.23
2018-03-20T08:52:10.555Z,10.40
2018-03-20T08:54:38.864Z,13.57
2018-03-20T08:57:07.246Z,17.37
2018-03-20T08:59:35.513Z,16.90
2018-03-20T09:02:03.808Z,13.00
2018-03-20T09:04:32.068Z,14.77
2018-03-20T09:07:00.376Z,14.97
2018-03-20T09:09:28.639Z,17.30
2018-03-20T09:11:56.923Z,14.70
2018-03-20T09:14:25.195Z,17.27
2018-03-20T09:16:53.481Z,19.77
2018-03-20T09:19:21.761Z,15.10
2018-03-20T09:21:50.241Z,18.93
2018-03-20T09:24:18.495Z,23.00
2018-03-20T09:26:46.771Z,26.50
2018-03-20T09:29:15.081Z,26.30
2018-03-20T09:31:43.338Z,24.73
2018-03-20T09:34:11.633Z,22.00
2018-03-20T09:36:40.014Z,22.40
2018-03-20T09:39:08.301Z,23.00
2018-03-20T09:41:36.664Z,21.43
2018-03-20T09:44:04.950Z,18.00
2018-03-20T09:46:33.228Z,20.27
2018-03-20T09:49:01.563Z,17.90
2018-03-20T09:51:30.565Z,21.40
2018-03-20T09:53:58.871Z,20.33
2018-03-20T09:56:27.138Z,19.60
2018-03-20T09:58:55.417Z,20.57
2018-03-20T10:01:23.802Z,16.97
2018-03-20T10:03:52.052Z,20.43
2018-03-20T10:06:20.338Z,17.17
2018-03-20T10:08:48.736Z,16.87
2018-03-20T10:11:17.011Z,15.57
2018-03-20T10:13:45.313Z,13.60
2018-03-20T10:16:13.592Z,17.37
2018-03-20T10:18:42.626Z,18.13
2018-03-20T10:21:10.921Z,15.53
2018-03-20T10:23:39.203Z,14.63
2018-03-20T10:26:07.600Z,13.80
2018-03-20T10:28:35.974Z,14.13
2018-03-20T10:31:04.247Z,13.23
2018-03-20T10:33:32.651Z,17.83
2018-03-20T10:36:00.915Z,12.70
2018-03-20T10:38:29.202Z,15.33
2018-03-20T10:40:57.466Z,17.37
2018-03-20T10:43:25.752Z,14.67
2018-03-20T10:45:54.142Z,16.17
2018-03-20T10:48:22.424Z,18.83
2018-03-20T10:50:50.777Z,17.10
2018-03-20T10:53:19.155Z,18.17
2018-03-20T10:55:47.420Z,15.37
2018-03-20T10:58:15.922Z,16.27
2018-03-20T11:00:50.086Z,19.00
2018-03-20T11:03:18.388Z,16.83
2018-03-20T11:05:46.659Z,21.20
2018-03-20T11:08:14.932Z,21.53
2018-03-20T11:10:43.224Z,19.23
2018-03-20T11:13:11.491Z,16.47
2018-03-20T11:15:39.778Z,18.07
2018-03-20T11:18:08.048Z,16.97
2018-03-20T11:20:37.064Z,18.50
2018-03-20T11:23:05.353Z,16.83
2018-03-20T11:25:33.636Z,15.23
2018-03-20T11:28:01.926Z,17.03
2018-03-20T11:30:30.984Z,16.00
2018-03-20T11:32:59.266Z,18.60
2018-03-20T11:35:27.562Z,21.53
2018-03-20T11:37:57.328Z,18.20
2018-03-20T11:40:25.624Z,18.20
2018-03-20T11:42:53.889Z,13.03
2018-03-20T11:45:22.170Z,15.43
2018-03-20T11:47:50.453Z,15.23
2018-03-20T11:50:18.724Z,20.20
2018-03-20T11:52:47.779Z,16.43
2018-03-20T11:55:16.834Z,17.90
2018-03-20T11:57:45.116Z,14.77
2018-03-20T12:00:13.391Z,16.30
2018-03-20T12:02:41.680Z,18.07
2018-03-20T12:05:09.939Z,17.23
2018-03-20T12:07:50.135Z,17.10
2018-03-20T12:10:19.168Z,18.10
2018-03-20T12:12:47.437Z,17.57
2018-03-20T12:15:15.725Z,17.70
2018-03-20T12:17:44.021Z,14.03
2018-03-20T12:20:12.305Z,14.57
2018-03-20T12:22:40.585Z,17.20
2018-03-20T12:25:09.066Z,12.97
2018-03-20T12:27:37.316Z,11.80
2018-03-20T12:30:05.622Z,11.73
2018-03-20T12:32:33.883Z,13.30
2018-03-20T12:35:02.185Z,13.83
2018-03-20T12:37:30.468Z,11.57
2018-03-20T12:39:58.822Z,12.60
2018-03-20T12:42:27.089Z,15.33
2018-03-20T12:44:55.402Z,12.87
2018-03-20T12:47:23.668Z,13.60
2018-03-20T12:49:52.033Z,11.20
2018-03-20T12:52:20.325Z,14.03
2018-03-20T12:54:48.593Z,16.23
2018-03-20T12:57:16.885Z,14.53
2018-03-20T12:59:45.147Z,12.27
2018-03-20T13:02:14.328Z,13.27
2018-03-20T13:04:42.598Z,11.90
2018-03-20T13:07:10.882Z,13.97
2018-03-20T13:09:39.135Z,14.70
2018-03-20T13:12:07.431Z,16.73
2018-03-20T13:14:35.693Z,15.20
2018-03-20T13:17:04.007Z,12.20
2018-03-20T13:19:32.260Z,11.30
2018-03-20T13:22:00.535Z,14.67
2018-03-20T13:24:28.812Z,12.97
2018-03-20T13:26:57.077Z,13.70
2018-03-20T13:29:25.409Z,14.37
2018-03-20T13:31:53.675Z,18.80
2018-03-20T13:34:21.959Z,10.07
2018-03-20T13:36:50.329Z,15.47
2018-03-20T13:39:18.623Z,13.30
2018-03-20T13:41:46.906Z,14.40
2018-03-20T13:44:15.185Z,12.00
2018-03-20T13:46:44.213Z,14.57
2018-03-20T13:49:12.500Z,16.23
2018-03-20T13:51:40.753Z,13.67
2018-03-20T13:54:09.037Z,14.20
2018-03-20T13:56:37.300Z,14.03
2018-03-20T13:59:05.643Z,11.50
2018-03-20T14:01:33.940Z,12.77
2018-03-20T14:04:02.201Z,10.80
2018-03-20T14:06:30.492Z,10.50
2018-03-20T14:08:59.550Z,11.43
2018-03-20T14:11:27.840Z,9.17
2018-03-20T14:13:56.110Z,10.73
2018-03-20T14:16:24.390Z,8.70
2018-03-20T14:18:52.676Z,10.30
2018-03-20T14:21:20.968Z,9.27
2018-03-20T14:23:49.211Z,8.53
2018-03-20T14:26:17.532Z,10.07
2018-03-20T14:28:46.579Z,8.40
2018-03-20T14:31:14.853Z,7.60
2018-03-20T14:33:43.132Z,10.17
2018-03-20T14:36:11.396Z,8.87
2018-03-20T14:38:39.705Z,9.70
2018-03-20T14:41:07.975Z,10.20
2018-03-20T14:43:36.248Z,7.90
2018-03-20T14:46:04.530Z,8.20
2018-03-20T14:48:32.807Z,6.83
2018-03-20T14:51:01.072Z,22.60
2018-03-20T14:53:29.345Z,9.50
2018-03-20T14:55:57.605Z,8.60
2018-03-20T14:58:25.878Z,8.63
2018-03-20T15:00:54.137Z,7.43
2018-03-20T15:03:23.204Z,6.60
2018-03-20T15:05:51.460Z,8.60
2018-03-20T15:08:19.721Z,8.33
2018-03-20T15:10:53.913Z,8.63
2018-03-20T15:13:22.168Z,7.70
2018-03-20T15:15:51.220Z,7.57
2018-03-20T15:18:19.502Z,7.10
2018-03-20T15:20:47.792Z,4.77
2018-03-20T15:23:16.051Z,4.90
2018-03-20T15:25:44.325Z,5.10
2018-03-20T15:28:12.577Z,3.97
2018-03-20T15:30:40.895Z,3.73
2018-03-20T15:33:09.157Z,4.30
2018-03-20T15:35:37.416Z,5.37
2018-03-20T15:38:05.683Z,3.43
2018-03-20T15:40:34.012Z,2.27
2018-03-20T15:43:02.279Z,2.67
2018-03-20T15:45:30.537Z,3.00
2018-03-20T15:47:58.845Z,2.00
2018-03-20T15:50:27.120Z,1.80
2018-03-20T15:52:55.403Z,2.40
2018-03-20T15:55:23.784Z,5.27
2018-03-20T15:57:52.056Z,2.50
2018-03-20T16:00:20.328Z,1.50
2018-03-20T16:02:48.600Z,2.30
2018-03-20T16:05:16.855Z,3.60
2018-03-20T16:07:45.149Z,1.73
2018-03-20T16:10:13.399Z,1.97
2018-03-20T16:12:41.676Z,2.10
2018-03-20T16:15:09.987Z,4.70
2018-03-20T16:17:38.248Z,2.70
2018-03-20T16:20:06.538Z,2.13
2018-03-20T16:22:34.789Z,2.70
2018-03-20T16:25:03.056Z,2.50
2018-03-20T16:27:31.367Z,4.40
2018-03-20T16:29:59.646Z,1.60
2018-03-20T16:32:27.896Z,2.83
2018-03-20T16:34:56.212Z,1.53
2018-03-20T16:37:24.461Z,4.50
2018-03-20T16:39:52.757Z,1.63
2018-03-20T16:42:21.010Z,1.70
2018-03-20T16:44:49.319Z,1.10
2018-03-20T16:47:17.697Z,2.77
2018-03-20T16:49:46.111Z,2.93
2018-03-20T16:52:14.364Z,1.83
2018-03-20T16:54:42.682Z,2.93
2018-03-20T16:57:10.992Z,0.80
2018-03-20T16:59:39.248Z,0.77
2018-03-20T17:02:07.530Z,1.57
2018-03-20T17:04:35.792Z,1.80
2018-03-20T17:07:04.842Z,5.13
2018-03-20T17:09:33.117Z,1.13
2018-03-20T17:12:01.510Z,2.57
2018-03-20T17:14:29.764Z,2.03
2018-03-20T17:16:58.025Z,1.37
2018-03-20T17:19:26.336Z,1.90
2018-03-20T17:21:54.601Z,2.93
2018-03-20T17:24:22.865Z,3.27
2018-03-20T17:26:51.117Z,3.57
2018-03-20T17:29:19.388Z,2.00
2018-03-20T17:31:47.658Z,1.80
2018-03-20T17:34:16.686Z,2.20
2018-03-20T17:36:45.022Z,2.60
2018-03-20T17:39:13.258Z,2.90
2018-03-20T17:41:41.529Z,1.33
2018-03-20T17:44:09.801Z,2.40
2018-03-20T17:46:38.052Z,3.13
2018-03-20T17:49:06.361Z,2.10
2018-03-20T17:51:34.648Z,2.17
2018-03-20T17:54:02.927Z,3.10
2018-03-20T17:56:31.215Z,2.23
2018-03-20T17:58:59.468Z,1.33
2018-03-20T18:01:27.729Z,2.80
2018-03-20T18:03:56.008Z,2.03
2018-03-20T18:06:24.280Z,3.13
2018-03-20T18:08:52.593Z,3.45
2018-03-20T18:11:20.839Z,5.17
2018-03-20T18:13:49.165Z,3.57
2018-03-20T18:16:17.432Z,4.40
2018-03-20T18:18:45.708Z,1.57
2018-03-20T18:21:13.993Z,8.60
2018-03-20T18:23:42.380Z,4.80
2018-03-20T18:26:10.647Z,2.97
2018-03-20T18:28:38.956Z,2.30
2018-03-20T18:31:07.991Z,2.10
2018-03-20T18:33:36.257Z,3.63
2018-03-20T18:36:04.591Z,5.53
2018-03-20T18:38:32.887Z,1.67
2018-03-20T18:41:01.906Z,1.87
2018-03-20T18:43:30.170Z,5.83
2018-03-20T18:45:58.453Z,3.43
2018-03-20T18:48:26.875Z,2.97
2018-03-20T18:50:55.353Z,2.80
2018-03-20T18:53:23.609Z,3.47
2018-03-20T18:55:51.908Z,3.37
2018-03-20T18:58:20.159Z,2.13
2018-03-20T19:00:48.433Z,3.10
2018-03-20T19:03:16.701Z,13.67
2018-03-20T19:05:45.004Z,10.80
2018-03-20T19:08:13.257Z,4.93
2018-03-20T19:10:41.535Z,4.33
2018-03-20T19:13:09.820Z,2.70
2018-03-20T19:15:38.123Z,2.20
2018-03-20T19:18:06.390Z,5.73
2018-03-20T19:20:34.656Z,2.87
2018-03-20T19:23:02.933Z,2.70
2018-03-20T19:25:31.182Z,2.57
2018-03-20T19:27:59.457Z,2.37
2018-03-20T19:30:28.473Z,5.37
2018-03-20T19:32:56.748Z,1.90
2018-03-20T19:35:25.043Z,5.23
2018-03-20T19:37:53.340Z,4.70
2018-03-20T19:40:21.599Z,3.97
2018-03-20T19:42:49.869Z,3.57
2018-03-20T19:45:18.166Z,5.40
2018-03-20T19:47:46.433Z,2.90
2018-03-20T19:50:14.713Z,4.40
2018-03-20T19:52:42.990Z,3.27
2018-03-20T19:55:11.264Z,2.80
2018-03-20T19:57:40.545Z,4.10
2018-03-20T20:00:08.877Z,3.70
2018-03-20T20:02:37.220Z,2.17
2018-03-20T20:05:05.478Z,3.50
2018-03-20T20:07:33.749Z,4.40
2018-03-20T20:10:02.040Z,1.87
2018-03-20T20:12:30.341Z,4.47
2018-03-20T20:14:58.615Z,5.00
2018-03-20T20:17:26.905Z,2.73
2018-03-20T20:20:02.094Z,6.20
2018-03-20T20:22:31.224Z,5.60
2018-03-20T20:24:59.489Z,7.10
2018-03-20T20:27:27.753Z,2.23
2018-03-20T20:29:56.487Z,4.47
2018-03-20T20:32:24.737Z,2.00
2018-03-20T20:34:53.012Z,5.40
2018-03-20T20:37:21.378Z,4.37
2018-03-20T20:39:49.668Z,3.60
2018-03-20T20:42:17.954Z,3.10
2018-03-20T20:44:46.290Z,3.20
2018-03-20T20:47:14.568Z,2.70
2018-03-20T20:49:42.894Z,2.50
2018-03-20T20:52:11.140Z,3.87
2018-03-20T20:54:39.433Z,5.87
2018-03-20T20:57:07.731Z,3.63
2018-03-20T20:59:35.997Z,2.83
2018-03-20T21:02:04.278Z,2.50
2018-03-20T21:04:32.659Z,3.70
2018-03-20T21:07:01.038Z,7.27
2018-03-20T21:09:29.302Z,1.70
2018-03-20T21:11:57.608Z,7.23
2018-03-20T21:14:25.867Z,4.30
2018-03-20T21:16:54.132Z,3.33
2018-03-20T21:19:22.404Z,6.87
2018-03-20T21:21:50.723Z,5.23
2018-03-20T21:24:18.969Z,2.60
2018-03-20T21:26:47.230Z,2.10
2018-03-20T21:29:15.527Z,2.70
2018-03-20T21:31:43.798Z,4.97
2018-03-20T21:34:12.048Z,2.40
2018-03-20T21:36:40.363Z,4.43
2018-03-20T21:39:08.693Z,1.60
2018-03-20T21:41:36.964Z,4.33
2018-03-20T21:44:05.234Z,3.83
2018-03-20T21:46:34.269Z,2.20
2018-03-20T21:49:02.529Z,4.10
2018-03-20T21:51:30.792Z,2.57
2018-03-20T21:53:59.056Z,3.30
2018-03-20T21:56:28.089Z,2.47
2018-03-20T21:58:56.356Z,3.77
2018-03-20T22:01:24.649Z,3.00
2018-03-20T22:03:52.923Z,1.73
2018-03-20T22:06:21.226Z,3.93
2018-03-20T22:08:49.500Z,3.80
2018-03-20T22:11:17.763Z,1.60
2018-03-20T22:13:46.074Z,2.50
2018-03-20T22:16:14.434Z,2.27
2018-03-20T22:18:42.813Z,3.90
2018-03-20T22:21:11.073Z,2.53
2018-03-20T22:23:39.367Z,3.43
2018-03-20T22:26:07.718Z,2.70
2018-03-20T22:28:36.028Z,3.23
2018-03-20T22:31:04.406Z,2.40
2018-03-20T22:33:32.664Z,4.00
2018-03-20T22:36:00.971Z,1.70
2018-03-20T22:38:29.229Z,4.10
2018-03-20T22:40:57.518Z,3.27
2018-03-20T22:43:25.759Z,1.87
2018-03-20T22:45:54.043Z,2.63
2018-03-20T22:48:22.291Z,3.83
2018-03-20T22:50:51.336Z,3.33
2018-03-20T22:53:19.591Z,8.10
2018-03-20T22:55:47.881Z,5.73
2018-03-20T22:58:16.124Z,5.30
2018-03-20T23:00:44.453Z,3.43
2018-03-20T23:03:12.741Z,6.00
2018-03-20T23:05:40.998Z,3.23
2018-03-20T23:08:09.277Z,3.70
2018-03-20T23:10:37.527Z,2.63
2018-03-20T23:13:05.807Z,3.03
2018-03-20T23:15:34.120Z,3.60
2018-03-20T23:18:02.384Z,2.50
2018-03-20T23:20:30.640Z,2.60
2018-03-20T23:22:59.348Z,1.83
2018-03-20T23:25:27.597Z,6.93
2018-03-20T23:27:55.874Z,3.63
2018-03-20T23:30:24.179Z,4.07
2018-03-20T23:32:52.448Z,5.10
2018-03-20T23:35:20.707Z,3.20
2018-03-20T23:37:48.982Z,3.83
2018-03-20T23:40:17.237Z,5.60
2018-03-20T23:42:45.507Z,7.57
2018-03-20T23:45:13.770Z,6.70
2018-03-20T23:47:42.805Z,5.33
2018-03-20T23:50:11.101Z,3.60
2018-03-20T23:52:39.363Z,3.53
2018-03-20T23:55:07.619Z,3.53
2018-03-20T23:57:35.943Z,2.67
